createdAt,value
2023-01-12T00:02:22.631Z,20.38
2023-01-12T00:04:50.979Z,19.80
2023-01-12T00:07:20.484Z,20.45
2023-01-12T00:09:50.159Z,21.60
2023-01-12T00:12:18.294Z,21.23
2023-01-12T00:14:46.425Z,23.17
2023-01-12T00:17:17.313Z,22.60
2023-01-12T00:19:45.551Z,23.45
2023-01-12T00:22:17.746Z,23.45
2023-01-12T00:24:49.856Z,27.30
2023-01-12T00:27:21.485Z,36.88
2023-01-12T00:29:50.080Z,38.17
2023-01-12T00:32:19.870Z,37.85
2023-01-12T00:34:48.042Z,40.33
2023-01-12T00:37:16.205Z,38.88
2023-01-12T00:40:01.055Z,40.03
2023-01-12T00:42:49.025Z,37.47
2023-01-12T00:45:23.195Z,37.90
2023-01-12T00:47:51.554Z,37.13
2023-01-12T00:50:19.936Z,38.80
2023-01-12T00:52:48.138Z,32.78
2023-01-12T00:55:16.478Z,29.92
2023-01-12T00:57:45.968Z,27.45
2023-01-12T01:00:15.092Z,29.33
2023-01-12T01:02:43.281Z,27.08
2023-01-12T01:05:11.547Z,27.10
2023-01-12T01:07:39.716Z,23.98
2023-01-12T01:10:08.519Z,26.25
2023-01-12T01:12:36.745Z,23.88
2023-01-12T01:15:09.078Z,24.50
2023-01-12T01:17:37.204Z,27.27
2023-01-12T01:20:06.215Z,27.08
2023-01-12T01:22:34.364Z,27.10
2023-01-12T01:25:02.513Z,29.77
2023-01-12T01:27:30.653Z,28.80
2023-01-12T01:29:58.796Z,26.63
2023-01-12T01:32:28.365Z,27.60
2023-01-12T01:34:56.441Z,26.20
2023-01-12T01:37:24.583Z,25.38
2023-01-12T01:39:52.701Z,25.65
2023-01-12T01:42:28.888Z,26.40
2023-01-12T01:44:59.310Z,27.35
2023-01-12T01:47:33.716Z,26.63
2023-01-12T01:50:04.942Z,25.02
2023-01-12T01:52:36.939Z,24.67
2023-01-12T01:55:08.280Z,25.35
2023-01-12T01:57:41.914Z,25.58
2023-01-12T02:03:56.659Z,21.20
2023-01-12T02:06:26.659Z,19.25
2023-01-12T02:08:58.701Z,18.58
2023-01-12T02:11:45.456Z,18.38
2023-01-12T02:14:31.796Z,17.23
2023-01-12T02:17:11.791Z,17.42
2023-01-12T02:20:19.717Z,15.90
2023-01-12T02:23:17.608Z,18.15
2023-01-12T02:26:12.649Z,16.50
2023-01-12T02:29:28.082Z,19.17
2023-01-12T02:32:07.141Z,18.25
2023-01-12T02:34:43.488Z,18.10
2023-01-12T02:37:19.892Z,19.73
2023-01-12T02:39:59.408Z,20.38
2023-01-12T02:42:42.682Z,20.02
2023-01-12T02:45:24.585Z,17.75
2023-01-12T02:47:58.491Z,18.25
2023-01-12T02:50:35.387Z,19.30
2023-01-12T02:53:10.563Z,18.58
2023-01-12T02:55:40.646Z,18.45
2023-01-12T02:58:11.943Z,18.83
2023-01-12T03:00:44.118Z,19.35
2023-01-12T03:03:13.994Z,17.95
2023-01-12T03:05:42.518Z,20.02
2023-01-12T03:08:12.726Z,18.52
2023-01-12T03:10:57.912Z,18.88
2023-01-12T03:13:32.878Z,19.52
2023-01-12T03:16:02.512Z,19.98
2023-01-12T03:18:35.664Z,20.45
2023-01-12T03:21:07.953Z,21.90
2023-01-12T03:23:41.952Z,20.75
2023-01-12T03:26:12.738Z,22.48
2023-01-12T03:28:45.307Z,23.08
2023-01-12T03:31:15.658Z,22.38
2023-01-12T03:33:46.822Z,23.05
2023-01-12T03:36:20.550Z,23.65
2023-01-12T03:39:02.611Z,21.67
2023-01-12T03:41:40.130Z,21.75
2023-01-12T03:44:13.888Z,21.25
2023-01-12T03:46:47.647Z,22.95
2023-01-12T03:49:20.779Z,22.50
2023-01-12T03:51:50.176Z,21.00
2023-01-12T03:54:19.817Z,20.02
2023-01-12T03:56:48.783Z,19.48
2023-01-12T03:59:17.267Z,19.98
2023-01-12T04:01:45.486Z,19.35
2023-01-12T04:04:13.638Z,19.00
2023-01-12T04:06:43.179Z,19.80
2023-01-12T04:09:11.370Z,19.33
2023-01-12T04:11:56.656Z,19.73
2023-01-12T04:14:24.765Z,19.15
2023-01-12T04:16:53.344Z,18.83
2023-01-12T04:19:21.427Z,19.27
2023-01-12T04:22:08.583Z,18.08
2023-01-12T04:24:36.719Z,16.52
2023-01-12T04:27:05.020Z,16.63
2023-01-12T04:29:33.115Z,18.52
2023-01-12T04:32:01.349Z,19.95
2023-01-12T04:34:29.488Z,20.67
2023-01-12T04:36:59.370Z,19.65
2023-01-12T04:39:27.500Z,20.70
2023-01-12T04:41:55.654Z,19.38
2023-01-12T04:44:23.793Z,18.92
2023-01-12T04:46:52.374Z,18.08
2023-01-12T04:49:20.513Z,18.70
2023-01-12T04:51:48.652Z,19.25
2023-01-12T04:54:18.236Z,19.50
2023-01-12T04:56:46.412Z,18.20
2023-01-12T04:59:14.567Z,20.10
2023-01-12T05:01:42.741Z,19.48
2023-01-12T05:04:10.995Z,19.35
2023-01-12T05:06:43.123Z,18.00
2023-01-12T05:09:32.871Z,19.20
2023-01-12T05:12:03.016Z,18.25
2023-01-12T05:14:31.141Z,19.23
2023-01-12T05:16:59.826Z,18.50
2023-01-12T05:19:27.933Z,19.17
2023-01-12T05:21:56.157Z,18.35
2023-01-12T05:24:24.287Z,18.42
2023-01-12T05:26:52.481Z,17.83
2023-01-12T05:29:22.110Z,18.88
2023-01-12T05:31:50.352Z,19.05
2023-01-12T05:34:20.682Z,18.35
2023-01-12T05:36:49.305Z,19.10
2023-01-12T05:39:17.555Z,17.85
2023-01-12T05:41:59.501Z,19.17
2023-01-12T05:44:29.079Z,20.15
2023-01-12T05:46:57.179Z,19.33
2023-01-12T05:49:25.495Z,20.20
2023-01-12T05:51:53.746Z,22.67
2023-01-12T05:54:24.232Z,21.65
2023-01-12T05:56:52.416Z,21.08
2023-01-12T05:59:20.530Z,23.92
2023-01-12T06:01:50.043Z,19.42
2023-01-12T06:04:18.312Z,21.25
2023-01-12T06:06:46.625Z,22.42
2023-01-12T06:09:14.750Z,23.02
2023-01-12T06:12:06.411Z,22.23
2023-01-12T06:14:35.562Z,24.88
2023-01-12T06:17:05.286Z,23.52
2023-01-12T06:19:33.632Z,23.17
2023-01-12T06:22:01.839Z,22.55
2023-01-12T06:24:30.033Z,24.02
2023-01-12T06:26:58.650Z,24.13
2023-01-12T06:29:26.829Z,22.67
2023-01-12T06:31:55.001Z,21.20
2023-01-12T06:34:24.595Z,22.23
2023-01-12T06:36:52.724Z,22.40
2023-01-12T06:39:20.928Z,23.60
2023-01-12T06:42:06.830Z,25.20
2023-01-12T06:44:34.937Z,24.42
2023-01-12T06:47:05.237Z,24.40
2023-01-12T06:49:34.853Z,22.50
2023-01-12T06:52:03.128Z,22.60
2023-01-12T06:54:32.089Z,21.92
2023-01-12T06:57:00.187Z,21.15
2023-01-12T06:59:28.395Z,20.90
2023-01-12T07:01:56.589Z,21.33
2023-01-12T07:04:26.050Z,19.00
2023-01-12T07:06:56.573Z,19.50
2023-01-12T07:09:24.976Z,19.50
2023-01-12T07:11:53.184Z,18.77
2023-01-12T07:14:21.392Z,21.25
2023-01-12T07:16:49.503Z,21.55
2023-01-12T07:19:17.725Z,21.13
2023-01-12T07:21:45.825Z,20.15
2023-01-12T07:24:15.715Z,24.17
2023-01-12T07:26:43.889Z,25.60
2023-01-12T07:29:12.398Z,25.08
2023-01-12T07:31:40.539Z,25.20
2023-01-12T07:34:08.686Z,24.58
2023-01-12T07:36:36.925Z,28.52
2023-01-12T07:39:05.208Z,27.42
2023-01-12T07:41:52.407Z,28.60
2023-01-12T07:44:20.577Z,26.80
2023-01-12T07:46:48.827Z,28.75
2023-01-12T07:49:17.040Z,29.02
2023-01-12T07:51:45.541Z,29.40
2023-01-12T07:54:13.625Z,31.70
2023-01-12T07:56:44.390Z,31.70
2023-01-12T07:59:12.894Z,32.35
2023-01-12T08:01:41.325Z,32.53
2023-01-12T08:04:09.585Z,31.92
2023-01-12T08:06:37.854Z,34.88
2023-01-12T08:09:05.999Z,34.85
2023-01-12T08:11:34.172Z,35.58
2023-01-12T08:14:05.531Z,35.97
2023-01-12T08:16:39.450Z,31.83
2023-01-12T08:19:11.597Z,35.40
2023-01-12T08:21:46.329Z,35.60
2023-01-12T08:24:16.647Z,36.88
2023-01-12T08:26:49.314Z,32.85
2023-01-12T08:29:23.450Z,33.28
2023-01-12T08:31:51.670Z,33.67
2023-01-12T08:34:19.971Z,32.75
2023-01-12T08:36:48.219Z,28.02
2023-01-12T08:39:16.414Z,24.88
2023-01-12T08:41:45.299Z,23.58
2023-01-12T08:44:13.483Z,20.92
2023-01-12T08:46:49.032Z,21.17
2023-01-12T08:49:18.821Z,21.20
2023-01-12T08:51:47.403Z,21.23
2023-01-12T08:54:18.106Z,21.08
2023-01-12T08:56:46.546Z,22.73
2023-01-12T08:59:14.779Z,22.35
2023-01-12T09:01:44.892Z,21.42
2023-01-12T09:04:13.387Z,19.88
2023-01-12T09:06:43.481Z,18.98
2023-01-12T09:09:13.512Z,17.90
2023-01-12T09:11:43.169Z,17.67
2023-01-12T09:14:12.060Z,18.33
2023-01-12T09:16:40.852Z,18.75
2023-01-12T09:19:11.006Z,18.15
2023-01-12T09:21:41.314Z,18.08
2023-01-12T09:24:09.844Z,18.67
2023-01-12T09:26:39.972Z,15.57
2023-01-12T09:29:09.019Z,14.68
2023-01-12T09:31:38.565Z,15.10
2023-01-12T09:34:06.873Z,15.07
2023-01-12T09:36:39.448Z,13.63
2023-01-12T09:39:12.816Z,14.85
2023-01-12T09:42:05.263Z,14.30
2023-01-12T09:44:53.398Z,14.52
2023-01-12T09:47:28.420Z,15.77
2023-01-12T09:50:08.828Z,15.25
2023-01-12T09:52:44.894Z,15.73
2023-01-12T09:55:18.722Z,16.88
2023-01-12T09:58:02.791Z,15.23
2023-01-12T10:00:32.527Z,16.27
2023-01-12T10:03:14.834Z,17.70
2023-01-12T10:05:48.928Z,17.13
2023-01-12T10:08:22.838Z,15.75
2023-01-12T10:11:03.216Z,14.93
2023-01-12T10:13:57.513Z,13.93
2023-01-12T10:16:34.282Z,13.88
2023-01-12T10:19:09.043Z,14.98
2023-01-12T10:21:37.699Z,15.55
2023-01-12T10:24:13.734Z,16.13
2023-01-12T10:26:44.541Z,16.30
2023-01-12T10:29:13.632Z,16.17
2023-01-12T10:31:41.865Z,16.73
2023-01-12T10:34:12.204Z,17.30
2023-01-12T10:36:44.819Z,17.88
2023-01-12T10:39:32.378Z,14.70
2023-01-12T10:42:36.842Z,15.57
2023-01-12T10:45:23.560Z,15.60
2023-01-12T10:47:54.224Z,14.50
2023-01-12T10:50:26.399Z,14.95
2023-01-12T10:53:02.467Z,12.90
2023-01-12T10:55:36.253Z,14.45
2023-01-12T10:58:04.906Z,13.52
2023-01-12T11:00:34.273Z,10.13
2023-01-12T11:03:03.199Z,12.45
2023-01-12T11:05:36.864Z,13.40
2023-01-12T11:08:05.663Z,11.90
2023-01-12T11:10:37.541Z,13.45
2023-01-12T11:13:09.016Z,11.27
2023-01-12T11:15:40.095Z,13.15
2023-01-12T11:18:28.470Z,13.23
2023-01-12T11:21:02.602Z,13.15
2023-01-12T11:23:37.904Z,12.73
2023-01-12T11:26:18.663Z,12.77
2023-01-12T11:28:51.046Z,11.55
2023-01-12T11:31:23.408Z,12.18
2023-01-12T11:33:57.066Z,9.52
2023-01-12T11:36:28.854Z,9.02
2023-01-12T11:39:02.854Z,11.60
2023-01-12T11:41:39.323Z,10.63
2023-01-12T11:44:15.454Z,10.80
2023-01-12T11:46:46.776Z,11.70
2023-01-12T11:49:20.958Z,19.63
2023-01-12T11:51:51.996Z,15.05
2023-01-12T11:54:20.810Z,12.93
2023-01-12T11:57:21.152Z,12.27
2023-01-12T12:00:01.007Z,11.73
2023-01-12T12:02:37.189Z,11.43
2023-01-12T12:05:22.972Z,11.02
2023-01-12T12:08:07.158Z,11.52
2023-01-12T12:10:43.059Z,10.25
2023-01-12T12:13:27.515Z,9.90
2023-01-12T12:16:05.140Z,14.57
2023-01-12T12:18:50.102Z,13.55
2023-01-12T12:21:36.259Z,16.80
2023-01-12T12:24:13.109Z,15.48
2023-01-12T12:26:44.846Z,15.70
2023-01-12T12:29:32.364Z,12.85
2023-01-12T12:32:13.266Z,12.07
2023-01-12T12:35:07.165Z,13.25
2023-01-12T12:37:50.338Z,13.57
2023-01-12T12:40:30.087Z,15.02
2023-01-12T12:43:25.769Z,12.70
2023-01-12T12:46:02.064Z,11.60
2023-01-12T12:48:39.946Z,13.30
2023-01-12T12:51:10.395Z,12.55
2023-01-12T12:53:41.986Z,12.90
2023-01-12T12:56:14.348Z,13.07
2023-01-12T12:58:47.475Z,11.95
2023-01-12T13:02:00.160Z,12.63
2023-01-12T13:05:04.810Z,13.13
2023-01-12T13:07:37.315Z,13.82
2023-01-12T13:10:23.729Z,13.40
2023-01-12T13:15:37.172Z,13.07
2023-01-12T13:18:27.630Z,11.95
2023-01-12T13:20:59.884Z,13.20
2023-01-12T13:23:52.251Z,11.32
2023-01-12T13:26:52.363Z,13.05
2023-01-12T13:29:50.450Z,12.63
2023-01-12T13:32:52.377Z,11.85
2023-01-12T13:36:10.466Z,11.70
2023-01-12T13:39:08.464Z,10.93
2023-01-12T13:41:55.906Z,10.20
2023-01-12T13:44:29.819Z,10.25
2023-01-12T13:47:04.649Z,10.00
2023-01-12T13:49:34.350Z,10.65
2023-01-12T13:52:06.181Z,9.07
2023-01-12T13:54:36.132Z,8.60
2023-01-12T13:57:06.735Z,9.88
2023-01-12T13:59:35.361Z,9.20
2023-01-12T14:02:04.639Z,8.85
2023-01-12T14:04:54.496Z,8.75
2023-01-12T14:07:32.654Z,13.63
2023-01-12T14:10:16.629Z,14.57
2023-01-12T14:13:18.375Z,15.27
2023-01-12T14:16:03.933Z,14.70
2023-01-12T14:18:42.959Z,16.00
2023-01-12T14:21:23.590Z,15.48
2023-01-12T14:23:52.468Z,16.02
2023-01-12T14:26:27.314Z,16.38
2023-01-12T14:28:55.561Z,15.85
2023-01-12T14:31:28.154Z,16.02
2023-01-12T14:33:58.408Z,14.70
2023-01-12T14:36:29.793Z,14.95
2023-01-12T14:38:59.788Z,14.48
2023-01-12T14:41:48.664Z,14.00
2023-01-12T14:44:37.805Z,14.68
2023-01-12T14:47:06.805Z,14.35
2023-01-12T14:49:36.531Z,14.90
2023-01-12T14:52:22.961Z,14.93
2023-01-12T14:57:25.323Z,13.55
2023-01-12T14:59:54.137Z,13.52
2023-01-12T15:02:33.092Z,14.52
2023-01-12T15:05:04.174Z,13.85
2023-01-12T15:07:35.618Z,15.45
2023-01-12T15:10:25.713Z,13.18
2023-01-12T15:12:57.021Z,14.63
2023-01-12T15:15:27.012Z,13.23
2023-01-12T15:18:24.169Z,14.57
2023-01-12T15:21:09.647Z,14.75
2023-01-12T15:23:55.866Z,16.80
2023-01-12T15:26:24.043Z,16.30
2023-01-12T15:28:53.651Z,18.90
2023-01-12T15:31:29.558Z,20.92
2023-01-12T15:34:04.840Z,31.15
2023-01-12T15:36:33.141Z,38.28
2023-01-12T15:39:01.327Z,52.90
2023-01-12T15:41:49.684Z,58.08
2023-01-12T15:44:21.025Z,73.78
2023-01-12T15:46:49.423Z,69.97
2023-01-12T15:49:18.062Z,63.05
2023-01-12T15:51:50.036Z,64.18
2023-01-12T15:54:19.919Z,57.60
2023-01-12T15:56:49.080Z,67.85
2023-01-12T15:59:20.903Z,62.70
2023-01-12T16:01:50.487Z,56.67
2023-01-12T16:07:09.034Z,50.53
2023-01-12T16:09:45.821Z,51.53
2023-01-12T16:12:14.264Z,50.33
2023-01-12T16:14:44.991Z,48.45
2023-01-12T16:17:13.348Z,47.17
2023-01-12T16:19:44.359Z,41.95
2023-01-12T16:22:21.309Z,41.45
2023-01-12T16:24:49.946Z,41.00
2023-01-12T16:27:18.827Z,42.00
2023-01-12T16:29:48.754Z,42.88
2023-01-12T16:32:17.810Z,37.75
2023-01-12T16:34:46.490Z,31.77
2023-01-12T16:37:15.896Z,30.48
2023-01-12T16:39:44.510Z,27.38
2023-01-12T16:42:13.361Z,22.83
2023-01-12T16:44:42.039Z,20.77
2023-01-12T16:47:14.638Z,19.40
2023-01-12T16:49:43.445Z,19.13
2023-01-12T16:52:16.412Z,21.98
2023-01-12T16:54:44.743Z,21.33
2023-01-12T16:57:14.258Z,21.83
2023-01-12T16:59:42.582Z,20.27
2023-01-12T17:02:15.241Z,21.95
2023-01-12T17:04:45.014Z,28.15
2023-01-12T17:07:13.576Z,30.30
2023-01-12T17:09:44.076Z,56.50
2023-01-12T17:12:12.513Z,68.95
2023-01-12T17:14:40.724Z,81.72
2023-01-12T17:17:11.400Z,80.10
2023-01-12T17:19:43.703Z,115.32
2023-01-12T17:22:13.056Z,142.30
2023-01-12T17:24:41.901Z,109.72
2023-01-12T17:27:12.215Z,94.00
2023-01-12T17:29:40.765Z,95.03
2023-01-12T17:32:09.432Z,92.00
2023-01-12T17:34:39.575Z,76.45
2023-01-12T17:37:09.903Z,90.68
2023-01-12T17:39:40.828Z,116.03
2023-01-12T17:42:27.166Z,104.15
2023-01-12T17:44:55.669Z,81.13
2023-01-12T17:47:24.883Z,65.68
2023-01-12T17:49:59.582Z,70.65
2023-01-12T17:52:29.351Z,88.13
2023-01-12T17:54:57.693Z,85.10
2023-01-12T17:57:26.409Z,86.32
2023-01-12T17:59:54.945Z,99.47
2023-01-12T18:02:23.482Z,101.80
2023-01-12T18:04:52.043Z,114.43
2023-01-12T18:07:20.338Z,101.32
2023-01-12T18:09:50.028Z,101.60
2023-01-12T18:12:21.509Z,100.38
2023-01-12T18:14:49.967Z,105.72
2023-01-12T18:17:18.393Z,98.38
2023-01-12T18:19:46.739Z,102.47
2023-01-12T18:22:15.016Z,90.28
2023-01-12T18:24:43.351Z,64.97
2023-01-12T18:27:13.323Z,43.35
2023-01-12T18:29:42.460Z,38.05
2023-01-12T18:32:11.447Z,34.22
2023-01-12T18:34:44.462Z,35.03
2023-01-12T18:37:13.828Z,35.10
2023-01-12T18:39:44.095Z,31.58
2023-01-12T18:42:31.781Z,31.65
2023-01-12T18:45:09.214Z,30.63
2023-01-12T18:48:07.244Z,33.30
2023-01-12T18:50:53.583Z,35.60
2023-01-12T18:53:30.293Z,40.13
2023-01-12T18:56:00.158Z,44.03
2023-01-12T18:58:32.250Z,47.88
2023-01-12T19:01:03.377Z,52.30
2023-01-12T19:03:35.234Z,52.60
2023-01-12T19:06:22.723Z,51.85
2023-01-12T19:09:12.386Z,53.03
2023-01-12T19:11:41.971Z,50.88
2023-01-12T19:14:31.439Z,47.17
2023-01-12T19:17:18.830Z,46.60
2023-01-12T19:19:47.867Z,59.45
2023-01-12T19:22:33.821Z,62.20
2023-01-12T19:25:19.661Z,74.68
2023-01-12T19:28:06.813Z,69.93
2023-01-12T19:30:40.559Z,74.47
2023-01-12T19:33:10.798Z,87.60
2023-01-12T19:35:41.075Z,83.25
2023-01-12T19:38:12.262Z,90.75
2023-01-12T19:40:47.284Z,81.47
2023-01-12T19:43:20.212Z,77.03
2023-01-12T19:45:52.018Z,73.13
2023-01-12T19:48:23.518Z,79.22
2023-01-12T19:50:53.607Z,68.43
2023-01-12T19:53:23.566Z,68.78
2023-01-12T19:55:54.679Z,66.80
2023-01-12T19:58:29.154Z,63.70
2023-01-12T20:01:02.297Z,63.92
2023-01-12T20:03:32.376Z,50.78
2023-01-12T20:06:01.415Z,53.80
2023-01-12T20:08:30.087Z,55.00
2023-01-12T20:11:04.969Z,57.03
2023-01-12T20:13:35.773Z,55.10
2023-01-12T20:16:08.954Z,56.90
2023-01-12T20:18:39.212Z,51.40
2023-01-12T20:21:10.763Z,49.13
2023-01-12T20:23:39.660Z,52.45
2023-01-12T20:26:09.408Z,49.03
2023-01-12T20:28:38.156Z,48.42
2023-01-12T20:31:13.209Z,43.78
2023-01-12T20:33:43.625Z,39.15
2023-01-12T20:36:13.940Z,36.13
2023-01-12T20:38:43.296Z,33.40
2023-01-12T20:41:12.673Z,34.20
2023-01-12T20:43:41.683Z,34.35
2023-01-12T20:46:14.834Z,36.45
2023-01-12T20:48:44.768Z,43.58
2023-01-12T20:51:17.768Z,43.47
2023-01-12T20:53:47.015Z,45.47
2023-01-12T20:56:18.367Z,52.63
2023-01-12T20:58:47.518Z,59.70
2023-01-12T21:01:18.140Z,65.20
2023-01-12T21:03:47.235Z,61.08
2023-01-12T21:06:17.807Z,59.38
2023-01-12T21:08:47.953Z,59.03
2023-01-12T21:11:20.485Z,57.13
2023-01-12T21:13:49.266Z,56.03
2023-01-12T21:16:20.717Z,56.33
2023-01-12T21:18:52.391Z,55.03
2023-01-12T21:21:20.661Z,54.97
2023-01-12T21:23:48.929Z,61.80
2023-01-12T21:26:17.518Z,60.15
2023-01-12T21:28:46.404Z,58.42
2023-01-12T21:31:14.708Z,53.67
2023-01-12T21:33:44.891Z,58.45
2023-01-12T21:36:14.522Z,50.80
2023-01-12T21:38:42.769Z,51.13
2023-01-12T21:41:12.695Z,53.75
2023-01-12T21:43:40.904Z,49.35
2023-01-12T21:46:11.293Z,43.47
2023-01-12T21:48:39.851Z,40.42
2023-01-12T21:51:12.138Z,49.22
2023-01-12T21:53:41.928Z,49.47
2023-01-12T21:56:12.960Z,48.45
2023-01-12T21:58:41.195Z,47.78
2023-01-12T22:01:11.180Z,44.58
2023-01-12T22:03:40.017Z,44.80
2023-01-12T22:06:12.159Z,42.75
2023-01-12T22:08:41.736Z,39.22
2023-01-12T22:11:12.789Z,34.83
2023-01-12T22:13:41.606Z,35.65
2023-01-12T22:16:12.653Z,35.72
2023-01-12T22:18:41.149Z,35.72
2023-01-12T22:21:11.171Z,36.67
2023-01-12T22:23:40.003Z,33.55
2023-01-12T22:26:10.366Z,33.85
2023-01-12T22:28:40.279Z,35.25
2023-01-12T22:31:10.150Z,41.53
2023-01-12T22:33:38.366Z,41.03
2023-01-12T22:36:08.056Z,39.55
2023-01-12T22:38:38.310Z,38.30
2023-01-12T22:41:07.500Z,40.60
2023-01-12T22:43:40.703Z,38.75
2023-01-12T22:46:15.895Z,35.63
2023-01-12T22:48:44.410Z,34.83
2023-01-12T22:51:12.809Z,32.85
2023-01-12T22:53:42.495Z,30.23
2023-01-12T22:56:12.044Z,29.92
2023-01-12T22:58:40.483Z,29.70
2023-01-12T23:01:10.927Z,28.70
2023-01-12T23:03:39.449Z,30.27
2023-01-12T23:06:08.481Z,28.33
2023-01-12T23:08:36.751Z,31.70
2023-01-12T23:11:08.166Z,28.63
2023-01-12T23:13:36.883Z,28.90
2023-01-12T23:16:07.155Z,29.98
2023-01-12T23:18:37.604Z,27.92
2023-01-12T23:21:11.146Z,28.23
2023-01-12T23:23:39.990Z,27.35
2023-01-12T23:26:11.653Z,29.30
2023-01-12T23:28:43.952Z,28.42
2023-01-12T23:31:14.763Z,28.27
2023-01-12T23:33:43.841Z,27.00
2023-01-12T23:36:13.725Z,27.55
2023-01-12T23:38:42.012Z,28.23
2023-01-12T23:41:18.393Z,26.33
2023-01-12T23:43:47.204Z,26.40
2023-01-12T23:46:17.128Z,28.20
2023-01-12T23:48:45.592Z,27.10
2023-01-12T23:51:13.790Z,28.08
2023-01-12T23:53:42.434Z,28.40
2023-01-12T23:56:13.378Z,27.80
2023-01-12T23:58:43.907Z,28.13
